sensor_id;sensor_type;location;lat;lon;timestamp;P1;durP1;ratioP1;P2;durP2;ratioP2
12707;SDS011;6418;50.824;4.718;2023-07-09T00:00:54;16.35;;;9.95;;
12707;SDS011;6418;50.824;4.718;2023-07-09T00:03:21;18.70;;;9.95;;
12707;SDS011;6418;50.824;4.718;2023-07-09T00:05:48;15.90;;;9.50;;
12707;SDS011;6418;50.824;4.718;2023-07-09T00:08:21;16.63;;;10.25;;
12707;SDS011;6418;50.824;4.718;2023-07-09T00:10:53;16.05;;;9.85;;
12707;SDS011;6418;50.824;4.718;2023-07-09T00:13:21;16.25;;;10.50;;
12707;SDS011;6418;50.824;4.718;2023-07-09T00:15:49;18.70;;;10.10;;
12707;SDS011;6418;50.824;4.718;2023-07-09T00:18:17;18.23;;;10.52;;
12707;SDS011;6418;50.824;4.718;2023-07-09T00:20:44;15.45;;;10.40;;
12707;SDS011;6418;50.824;4.718;2023-07-09T00:23:13;17.48;;;10.63;;
12707;SDS011;6418;50.824;4.718;2023-07-09T00:25:41;15.55;;;10.30;;
12707;SDS011;6418;50.824;4.718;2023-07-09T00:28:12;17.77;;;11.43;;
12707;SDS011;6418;50.824;4.718;2023-07-09T00:30:41;17.13;;;10.05;;
12707;SDS011;6418;50.824;4.718;2023-07-09T00:33:10;20.08;;;10.77;;
12707;SDS011;6418;50.824;4.718;2023-07-09T00:35:39;17.88;;;10.38;;
12707;SDS011;6418;50.824;4.718;2023-07-09T00:38:12;15.52;;;10.20;;
12707;SDS011;6418;50.824;4.718;2023-07-09T00:40:45;17.00;;;10.20;;
12707;SDS011;6418;50.824;4.718;2023-07-09T00:43:15;15.55;;;9.98;;
12707;SDS011;6418;50.824;4.718;2023-07-09T00:45:43;14.35;;;9.98;;
12707;SDS011;6418;50.824;4.718;2023-07-09T00:48:12;17.30;;;10.35;;
12707;SDS011;6418;50.824;4.718;2023-07-09T00:50:44;15.43;;;9.93;;
12707;SDS011;6418;50.824;4.718;2023-07-09T00:53:16;15.82;;;10.00;;
12707;SDS011;6418;50.824;4.718;2023-07-09T00:55:49;17.40;;;9.93;;
12707;SDS011;6418;50.824;4.718;2023-07-09T00:58:18;16.85;;;10.20;;
12707;SDS011;6418;50.824;4.718;2023-07-09T01:00:49;17.80;;;9.82;;
12707;SDS011;6418;50.824;4.718;2023-07-09T01:03:21;16.00;;;9.93;;
12707;SDS011;6418;50.824;4.718;2023-07-09T01:05:52;16.33;;;9.63;;
12707;SDS011;6418;50.824;4.718;2023-07-09T01:08:20;15.88;;;9.85;;
12707;SDS011;6418;50.824;4.718;2023-07-09T01:10:47;18.05;;;9.90;;
12707;SDS011;6418;50.824;4.718;2023-07-09T01:13:14;17.63;;;9.25;;
12707;SDS011;6418;50.824;4.718;2023-07-09T01:15:43;15.30;;;9.45;;
12707;SDS011;6418;50.824;4.718;2023-07-09T01:18:12;17.70;;;9.35;;
12707;SDS011;6418;50.824;4.718;2023-07-09T01:20:40;15.80;;;9.25;;
12707;SDS011;6418;50.824;4.718;2023-07-09T01:23:09;15.27;;;9.38;;
12707;SDS011;6418;50.824;4.718;2023-07-09T01:25:38;15.95;;;9.38;;
12707;SDS011;6418;50.824;4.718;2023-07-09T01:28:09;16.50;;;9.13;;
12707;SDS011;6418;50.824;4.718;2023-07-09T01:30:37;17.38;;;9.10;;
12707;SDS011;6418;50.824;4.718;2023-07-09T01:33:06;16.45;;;8.90;;
12707;SDS011;6418;50.824;4.718;2023-07-09T01:35:35;16.65;;;8.75;;
12707;SDS011;6418;50.824;4.718;2023-07-09T01:38:06;15.82;;;8.75;;
12707;SDS011;6418;50.824;4.718;2023-07-09T01:40:35;15.10;;;8.35;;
12707;SDS011;6418;50.824;4.718;2023-07-09T01:43:02;16.33;;;8.40;;
12707;SDS011;6418;50.824;4.718;2023-07-09T01:45:32;17.13;;;8.30;;
12707;SDS011;6418;50.824;4.718;2023-07-09T01:47:59;16.95;;;9.07;;
12707;SDS011;6418;50.824;4.718;2023-07-09T01:50:27;14.80;;;8.20;;
12707;SDS011;6418;50.824;4.718;2023-07-09T01:52:54;17.05;;;8.75;;
12707;SDS011;6418;50.824;4.718;2023-07-09T01:55:22;15.77;;;8.40;;
12707;SDS011;6418;50.824;4.718;2023-07-09T01:57:50;13.95;;;8.27;;
12707;SDS011;6418;50.824;4.718;2023-07-09T02:00:17;12.40;;;7.65;;
12707;SDS011;6418;50.824;4.718;2023-07-09T02:02:45;15.45;;;8.60;;
12707;SDS011;6418;50.824;4.718;2023-07-09T02:05:14;15.10;;;9.10;;
12707;SDS011;6418;50.824;4.718;2023-07-09T02:07:41;16.90;;;8.90;;
12707;SDS011;6418;50.824;4.718;2023-07-09T02:10:12;15.88;;;8.65;;
12707;SDS011;6418;50.824;4.718;2023-07-09T02:12:40;17.48;;;8.23;;
12707;SDS011;6418;50.824;4.718;2023-07-09T02:15:09;15.50;;;7.90;;
12707;SDS011;6418;50.824;4.718;2023-07-09T02:17:37;13.73;;;8.35;;
12707;SDS011;6418;50.824;4.718;2023-07-09T02:20:04;14.98;;;7.57;;
12707;SDS011;6418;50.824;4.718;2023-07-09T02:22:32;13.27;;;8.00;;
12707;SDS011;6418;50.824;4.718;2023-07-09T02:24:59;15.18;;;8.23;;
12707;SDS011;6418;50.824;4.718;2023-07-09T02:27:26;14.50;;;8.30;;
12707;SDS011;6418;50.824;4.718;2023-07-09T02:29:53;14.68;;;7.78;;
12707;SDS011;6418;50.824;4.718;2023-07-09T02:32:23;12.93;;;7.82;;
12707;SDS011;6418;50.824;4.718;2023-07-09T02:34:53;14.52;;;7.97;;
12707;SDS011;6418;50.824;4.718;2023-07-09T02:37:21;13.25;;;7.43;;
12707;SDS011;6418;50.824;4.718;2023-07-09T02:39:50;14.82;;;7.75;;
12707;SDS011;6418;50.824;4.718;2023-07-09T02:42:17;15.00;;;7.25;;
12707;SDS011;6418;50.824;4.718;2023-07-09T02:44:46;14.98;;;7.72;;
12707;SDS011;6418;50.824;4.718;2023-07-09T02:47:13;15.38;;;7.80;;
12707;SDS011;6418;50.824;4.718;2023-07-09T02:49:42;15.02;;;8.18;;
12707;SDS011;6418;50.824;4.718;2023-07-09T02:52:09;14.10;;;7.25;;
12707;SDS011;6418;50.824;4.718;2023-07-09T02:54:36;14.90;;;7.68;;
12707;SDS011;6418;50.824;4.718;2023-07-09T02:57:04;14.30;;;7.57;;
12707;SDS011;6418;50.824;4.718;2023-07-09T02:59:31;14.40;;;7.80;;
12707;SDS011;6418;50.824;4.718;2023-07-09T03:01:58;14.15;;;7.50;;
12707;SDS011;6418;50.824;4.718;2023-07-09T03:04:25;14.60;;;7.10;;
12707;SDS011;6418;50.824;4.718;2023-07-09T03:06:54;15.52;;;7.70;;
12707;SDS011;6418;50.824;4.718;2023-07-09T03:09:21;12.82;;;7.35;;
12707;SDS011;6418;50.824;4.718;2023-07-09T03:11:47;17.33;;;7.50;;
12707;SDS011;6418;50.824;4.718;2023-07-09T03:14:14;14.50;;;7.57;;
12707;SDS011;6418;50.824;4.718;2023-07-09T03:16:41;12.27;;;7.35;;
12707;SDS011;6418;50.824;4.718;2023-07-09T03:19:09;15.68;;;7.63;;
12707;SDS011;6418;50.824;4.718;2023-07-09T03:21:36;20.50;;;7.50;;
12707;SDS011;6418;50.824;4.718;2023-07-09T03:24:04;12.32;;;7.05;;
12707;SDS011;6418;50.824;4.718;2023-07-09T03:26:32;13.95;;;7.25;;
12707;SDS011;6418;50.824;4.718;2023-07-09T03:28:59;16.58;;;7.43;;
12707;SDS011;6418;50.824;4.718;2023-07-09T03:31:26;12.27;;;7.40;;
12707;SDS011;6418;50.824;4.718;2023-07-09T03:33:53;12.20;;;6.88;;
12707;SDS011;6418;50.824;4.718;2023-07-09T03:36:20;14.85;;;7.15;;
12707;SDS011;6418;50.824;4.718;2023-07-09T03:38:47;16.52;;;7.10;;
12707;SDS011;6418;50.824;4.718;2023-07-09T03:41:16;15.70;;;7.15;;
12707;SDS011;6418;50.824;4.718;2023-07-09T03:43:43;14.00;;;7.10;;
12707;SDS011;6418;50.824;4.718;2023-07-09T03:46:11;15.07;;;7.20;;
12707;SDS011;6418;50.824;4.718;2023-07-09T03:48:38;14.35;;;6.95;;
12707;SDS011;6418;50.824;4.718;2023-07-09T03:51:05;12.20;;;6.45;;
12707;SDS011;6418;50.824;4.718;2023-07-09T03:53:32;15.70;;;6.88;;
12707;SDS011;6418;50.824;4.718;2023-07-09T03:55:59;12.85;;;7.13;;
12707;SDS011;6418;50.824;4.718;2023-07-09T03:58:27;14.73;;;6.55;;
12707;SDS011;6418;50.824;4.718;2023-07-09T04:00:54;12.57;;;6.78;;
12707;SDS011;6418;50.824;4.718;2023-07-09T04:03:22;13.88;;;7.10;;
12707;SDS011;6418;50.824;4.718;2023-07-09T04:05:49;13.68;;;6.80;;
12707;SDS011;6418;50.824;4.718;2023-07-09T04:08:17;13.68;;;6.60;;
12707;SDS011;6418;50.824;4.718;2023-07-09T04:10:45;12.40;;;6.53;;
12707;SDS011;6418;50.824;4.718;2023-07-09T04:13:12;17.25;;;6.63;;
12707;SDS011;6418;50.824;4.718;2023-07-09T04:15:40;15.13;;;6.68;;
12707;SDS011;6418;50.824;4.718;2023-07-09T04:18:07;15.52;;;6.57;;
12707;SDS011;6418;50.824;4.718;2023-07-09T04:20:34;13.93;;;6.43;;
12707;SDS011;6418;50.824;4.718;2023-07-09T04:23:01;16.15;;;7.05;;
12707;SDS011;6418;50.824;4.718;2023-07-09T04:25:29;13.20;;;6.85;;
12707;SDS011;6418;50.824;4.718;2023-07-09T04:27:56;14.38;;;6.70;;
12707;SDS011;6418;50.824;4.718;2023-07-09T04:30:24;13.10;;;6.60;;
12707;SDS011;6418;50.824;4.718;2023-07-09T04:32:52;17.08;;;6.75;;
12707;SDS011;6418;50.824;4.718;2023-07-09T04:35:19;14.75;;;6.50;;
12707;SDS011;6418;50.824;4.718;2023-07-09T04:37:46;13.18;;;6.45;;
12707;SDS011;6418;50.824;4.718;2023-07-09T04:40:13;13.18;;;6.95;;
12707;SDS011;6418;50.824;4.718;2023-07-09T04:42:40;16.98;;;7.13;;
12707;SDS011;6418;50.824;4.718;2023-07-09T04:45:08;13.32;;;6.45;;
12707;SDS011;6418;50.824;4.718;2023-07-09T04:47:37;14.05;;;7.00;;
12707;SDS011;6418;50.824;4.718;2023-07-09T04:50:07;15.07;;;6.75;;
12707;SDS011;6418;50.824;4.718;2023-07-09T04:52:35;14.18;;;7.20;;
12707;SDS011;6418;50.824;4.718;2023-07-09T04:55:02;13.88;;;6.88;;
12707;SDS011;6418;50.824;4.718;2023-07-09T04:57:30;15.20;;;6.28;;
12707;SDS011;6418;50.824;4.718;2023-07-09T04:59:57;14.55;;;6.50;;
12707;SDS011;6418;50.824;4.718;2023-07-09T05:02:24;16.38;;;7.03;;
12707;SDS011;6418;50.824;4.718;2023-07-09T05:04:51;13.88;;;7.00;;
12707;SDS011;6418;50.824;4.718;2023-07-09T05:07:19;14.63;;;7.03;;
12707;SDS011;6418;50.824;4.718;2023-07-09T05:09:46;13.88;;;7.18;;
12707;SDS011;6418;50.824;4.718;2023-07-09T05:12:13;14.15;;;7.68;;
12707;SDS011;6418;50.824;4.718;2023-07-09T05:14:40;13.43;;;6.68;;
12707;SDS011;6418;50.824;4.718;2023-07-09T05:17:07;14.07;;;7.20;;
12707;SDS011;6418;50.824;4.718;2023-07-09T05:19:34;13.48;;;7.15;;
12707;SDS011;6418;50.824;4.718;2023-07-09T05:22:02;14.23;;;7.28;;
12707;SDS011;6418;50.824;4.718;2023-07-09T05:24:30;12.25;;;7.35;;
12707;SDS011;6418;50.824;4.718;2023-07-09T05:26:57;13.02;;;7.47;;
12707;SDS011;6418;50.824;4.718;2023-07-09T05:29:25;15.10;;;7.72;;
12707;SDS011;6418;50.824;4.718;2023-07-09T05:31:52;15.45;;;7.75;;
12707;SDS011;6418;50.824;4.718;2023-07-09T05:34:19;13.20;;;7.45;;
12707;SDS011;6418;50.824;4.718;2023-07-09T05:36:46;13.93;;;7.88;;
12707;SDS011;6418;50.824;4.718;2023-07-09T05:39:13;13.70;;;7.88;;
12707;SDS011;6418;50.824;4.718;2023-07-09T05:41:42;13.45;;;7.30;;
12707;SDS011;6418;50.824;4.718;2023-07-09T05:44:09;13.80;;;7.32;;
12707;SDS011;6418;50.824;4.718;2023-07-09T05:46:36;14.80;;;7.32;;
12707;SDS011;6418;50.824;4.718;2023-07-09T05:49:04;14.52;;;7.47;;
12707;SDS011;6418;50.824;4.718;2023-07-09T05:51:31;14.75;;;7.63;;
12707;SDS011;6418;50.824;4.718;2023-07-09T05:53:59;14.10;;;7.40;;
12707;SDS011;6418;50.824;4.718;2023-07-09T05:56:26;13.93;;;7.65;;
12707;SDS011;6418;50.824;4.718;2023-07-09T05:58:55;13.73;;;7.35;;
12707;SDS011;6418;50.824;4.718;2023-07-09T06:01:22;15.13;;;7.05;;
12707;SDS011;6418;50.824;4.718;2023-07-09T06:03:49;14.02;;;7.38;;
12707;SDS011;6418;50.824;4.718;2023-07-09T06:06:16;15.23;;;7.63;;
12707;SDS011;6418;50.824;4.718;2023-07-09T06:08:43;15.18;;;7.78;;
12707;SDS011;6418;50.824;4.718;2023-07-09T06:11:10;13.85;;;7.65;;
12707;SDS011;6418;50.824;4.718;2023-07-09T06:13:37;14.57;;;7.65;;
12707;SDS011;6418;50.824;4.718;2023-07-09T06:16:05;14.05;;;7.30;;
12707;SDS011;6418;50.824;4.718;2023-07-09T06:18:32;14.20;;;7.32;;
12707;SDS011;6418;50.824;4.718;2023-07-09T06:20:59;13.98;;;7.35;;
12707;SDS011;6418;50.824;4.718;2023-07-09T06:23:28;11.40;;;6.43;;
12707;SDS011;6418;50.824;4.718;2023-07-09T06:25:55;13.93;;;7.00;;
12707;SDS011;6418;50.824;4.718;2023-07-09T06:28:24;14.80;;;6.97;;
12707;SDS011;6418;50.824;4.718;2023-07-09T06:30:54;14.90;;;6.95;;
12707;SDS011;6418;50.824;4.718;2023-07-09T06:33:23;14.63;;;7.40;;
12707;SDS011;6418;50.824;4.718;2023-07-09T06:35:52;14.55;;;7.13;;
12707;SDS011;6418;50.824;4.718;2023-07-09T06:38:21;15.85;;;7.10;;
12707;SDS011;6418;50.824;4.718;2023-07-09T06:40:48;13.90;;;7.18;;
12707;SDS011;6418;50.824;4.718;2023-07-09T06:43:16;13.77;;;7.10;;
12707;SDS011;6418;50.824;4.718;2023-07-09T06:45:50;13.13;;;7.03;;
12707;SDS011;6418;50.824;4.718;2023-07-09T06:48:17;15.05;;;7.13;;
12707;SDS011;6418;50.824;4.718;2023-07-09T06:50:46;16.02;;;7.18;;
12707;SDS011;6418;50.824;4.718;2023-07-09T06:53:13;16.23;;;7.00;;
12707;SDS011;6418;50.824;4.718;2023-07-09T06:55:40;13.80;;;7.20;;
12707;SDS011;6418;50.824;4.718;2023-07-09T06:58:07;16.70;;;7.57;;
12707;SDS011;6418;50.824;4.718;2023-07-09T07:00:34;13.48;;;7.20;;
12707;SDS011;6418;50.824;4.718;2023-07-09T07:03:02;15.00;;;6.80;;
12707;SDS011;6418;50.824;4.718;2023-07-09T07:05:29;13.85;;;6.72;;
12707;SDS011;6418;50.824;4.718;2023-07-09T07:07:57;15.55;;;7.25;;
12707;SDS011;6418;50.824;4.718;2023-07-09T07:10:24;14.30;;;7.20;;
12707;SDS011;6418;50.824;4.718;2023-07-09T07:12:52;13.85;;;7.22;;
12707;SDS011;6418;50.824;4.718;2023-07-09T07:15:19;15.10;;;6.93;;
12707;SDS011;6418;50.824;4.718;2023-07-09T07:17:46;14.88;;;6.65;;
12707;SDS011;6418;50.824;4.718;2023-07-09T07:20:13;13.50;;;7.10;;
12707;SDS011;6418;50.824;4.718;2023-07-09T07:22:41;12.80;;;6.88;;
12707;SDS011;6418;50.824;4.718;2023-07-09T07:25:09;17.27;;;7.13;;
12707;SDS011;6418;50.824;4.718;2023-07-09T07:27:37;13.80;;;6.85;;
12707;SDS011;6418;50.824;4.718;2023-07-09T07:30:04;14.80;;;6.70;;
12707;SDS011;6418;50.824;4.718;2023-07-09T07:32:34;15.98;;;7.60;;
12707;SDS011;6418;50.824;4.718;2023-07-09T07:35:02;13.88;;;6.88;;
12707;SDS011;6418;50.824;4.718;2023-07-09T07:37:29;13.43;;;6.63;;
12707;SDS011;6418;50.824;4.718;2023-07-09T07:39:56;14.50;;;6.72;;
12707;SDS011;6418;50.824;4.718;2023-07-09T07:42:24;15.73;;;6.85;;
12707;SDS011;6418;50.824;4.718;2023-07-09T07:44:51;15.98;;;6.50;;
12707;SDS011;6418;50.824;4.718;2023-07-09T07:47:18;16.58;;;7.20;;
12707;SDS011;6418;50.824;4.718;2023-07-09T07:49:45;15.23;;;7.00;;
12707;SDS011;6418;50.824;4.718;2023-07-09T07:52:12;14.63;;;7.20;;
12707;SDS011;6418;50.824;4.718;2023-07-09T07:54:40;12.73;;;6.55;;
12707;SDS011;6418;50.824;4.718;2023-07-09T07:57:07;15.88;;;6.90;;
12707;SDS011;6418;50.824;4.718;2023-07-09T07:59:35;14.82;;;7.10;;
12707;SDS011;6418;50.824;4.718;2023-07-09T08:02:03;13.30;;;6.85;;
12707;SDS011;6418;50.824;4.718;2023-07-09T08:04:30;12.38;;;6.75;;
12707;SDS011;6418;50.824;4.718;2023-07-09T08:06:58;13.13;;;6.63;;
12707;SDS011;6418;50.824;4.718;2023-07-09T08:09:24;16.13;;;6.28;;
12707;SDS011;6418;50.824;4.718;2023-07-09T08:11:51;15.27;;;6.50;;
12707;SDS011;6418;50.824;4.718;2023-07-09T08:14:18;13.65;;;6.35;;
12707;SDS011;6418;50.824;4.718;2023-07-09T08:16:47;13.88;;;6.50;;
12707;SDS011;6418;50.824;4.718;2023-07-09T08:19:18;13.80;;;6.80;;
12707;SDS011;6418;50.824;4.718;2023-07-09T08:21:45;16.60;;;6.97;;
12707;SDS011;6418;50.824;4.718;2023-07-09T08:24:12;14.13;;;6.70;;
12707;SDS011;6418;50.824;4.718;2023-07-09T08:26:40;11.52;;;6.72;;
12707;SDS011;6418;50.824;4.718;2023-07-09T08:29:07;12.93;;;6.45;;
12707;SDS011;6418;50.824;4.718;2023-07-09T08:31:34;14.00;;;6.57;;
12707;SDS011;6418;50.824;4.718;2023-07-09T08:34:05;14.63;;;6.82;;
12707;SDS011;6418;50.824;4.718;2023-07-09T08:36:33;13.15;;;6.40;;
12707;SDS011;6418;50.824;4.718;2023-07-09T08:39:00;14.45;;;6.82;;
12707;SDS011;6418;50.824;4.718;2023-07-09T08:41:35;14.00;;;6.50;;
12707;SDS011;6418;50.824;4.718;2023-07-09T08:44:20;12.20;;;6.38;;
12707;SDS011;6418;50.824;4.718;2023-07-09T08:47:00;16.80;;;6.50;;
12707;SDS011;6418;50.824;4.718;2023-07-09T08:49:35;12.27;;;6.65;;
12707;SDS011;6418;50.824;4.718;2023-07-09T08:52:09;13.70;;;6.90;;
12707;SDS011;6418;50.824;4.718;2023-07-09T08:54:43;14.52;;;6.55;;
12707;SDS011;6418;50.824;4.718;2023-07-09T08:57:17;15.02;;;6.82;;
12707;SDS011;6418;50.824;4.718;2023-07-09T08:59:49;13.85;;;6.60;;
12707;SDS011;6418;50.824;4.718;2023-07-09T09:02:36;17.40;;;6.88;;
12707;SDS011;6418;50.824;4.718;2023-07-09T09:05:11;14.38;;;6.78;;
12707;SDS011;6418;50.824;4.718;2023-07-09T09:07:44;15.38;;;6.03;;
12707;SDS011;6418;50.824;4.718;2023-07-09T09:10:16;15.30;;;6.70;;
12707;SDS011;6418;50.824;4.718;2023-07-09T09:12:52;11.75;;;6.50;;
12707;SDS011;6418;50.824;4.718;2023-07-09T09:15:29;12.15;;;6.38;;
12707;SDS011;6418;50.824;4.718;2023-07-09T09:17:58;14.10;;;6.40;;
12707;SDS011;6418;50.824;4.718;2023-07-09T09:20:39;15.93;;;6.47;;
12707;SDS011;6418;50.824;4.718;2023-07-09T09:23:10;13.93;;;6.50;;
12707;SDS011;6418;50.824;4.718;2023-07-09T09:25:41;14.60;;;6.60;;
12707;SDS011;6418;50.824;4.718;2023-07-09T09:28:10;13.27;;;6.47;;
12707;SDS011;6418;50.824;4.718;2023-07-09T09:30:39;12.60;;;6.32;;
12707;SDS011;6418;50.824;4.718;2023-07-09T09:33:07;13.05;;;6.38;;
12707;SDS011;6418;50.824;4.718;2023-07-09T09:35:36;14.80;;;6.75;;
12707;SDS011;6418;50.824;4.718;2023-07-09T09:38:10;15.80;;;6.82;;
12707;SDS011;6418;50.824;4.718;2023-07-09T09:40:38;14.80;;;6.47;;
12707;SDS011;6418;50.824;4.718;2023-07-09T09:43:09;13.32;;;6.30;;
12707;SDS011;6418;50.824;4.718;2023-07-09T09:45:40;13.48;;;6.40;;
12707;SDS011;6418;50.824;4.718;2023-07-09T09:48:16;13.52;;;7.18;;
12707;SDS011;6418;50.824;4.718;2023-07-09T09:50:44;12.23;;;6.50;;
12707;SDS011;6418;50.824;4.718;2023-07-09T09:53:17;13.30;;;6.68;;
12707;SDS011;6418;50.824;4.718;2023-07-09T09:55:46;14.70;;;6.35;;
12707;SDS011;6418;50.824;4.718;2023-07-09T09:58:15;14.98;;;6.63;;
12707;SDS011;6418;50.824;4.718;2023-07-09T10:00:47;14.52;;;6.75;;
12707;SDS011;6418;50.824;4.718;2023-07-09T10:03:17;14.07;;;6.80;;
12707;SDS011;6418;50.824;4.718;2023-07-09T10:05:45;14.07;;;6.40;;
12707;SDS011;6418;50.824;4.718;2023-07-09T10:08:20;13.48;;;6.60;;
12707;SDS011;6418;50.824;4.718;2023-07-09T10:10:57;13.90;;;6.45;;
12707;SDS011;6418;50.824;4.718;2023-07-09T10:13:34;14.15;;;7.05;;
12707;SDS011;6418;50.824;4.718;2023-07-09T10:16:07;14.15;;;6.40;;
12707;SDS011;6418;50.824;4.718;2023-07-09T10:18:40;14.77;;;6.50;;
12707;SDS011;6418;50.824;4.718;2023-07-09T10:21:18;13.23;;;6.50;;
12707;SDS011;6418;50.824;4.718;2023-07-09T10:23:59;14.27;;;7.13;;
12707;SDS011;6418;50.824;4.718;2023-07-09T10:26:40;15.48;;;6.93;;
12707;SDS011;6418;50.824;4.718;2023-07-09T10:29:31;15.27;;;7.82;;
12707;SDS011;6418;50.824;4.718;2023-07-09T10:32:10;16.85;;;7.60;;
12707;SDS011;6418;50.824;4.718;2023-07-09T10:34:48;15.18;;;7.63;;
12707;SDS011;6418;50.824;4.718;2023-07-09T10:37:24;18.33;;;7.90;;
12707;SDS011;6418;50.824;4.718;2023-07-09T10:40:08;14.35;;;8.13;;
12707;SDS011;6418;50.824;4.718;2023-07-09T10:42:39;16.92;;;8.70;;
12707;SDS011;6418;50.824;4.718;2023-07-09T10:45:11;16.15;;;8.27;;
12707;SDS011;6418;50.824;4.718;2023-07-09T10:47:43;18.83;;;10.20;;
12707;SDS011;6418;50.824;4.718;2023-07-09T10:50:15;23.20;;;12.73;;
12707;SDS011;6418;50.824;4.718;2023-07-09T10:52:50;23.05;;;14.15;;
12707;SDS011;6418;50.824;4.718;2023-07-09T10:55:22;22.88;;;13.98;;
12707;SDS011;6418;50.824;4.718;2023-07-09T10:57:57;25.40;;;17.00;;
12707;SDS011;6418;50.824;4.718;2023-07-09T11:00:30;26.25;;;14.82;;
12707;SDS011;6418;50.824;4.718;2023-07-09T11:03:02;26.33;;;16.52;;
12707;SDS011;6418;50.824;4.718;2023-07-09T11:05:31;25.58;;;17.92;;
12707;SDS011;6418;50.824;4.718;2023-07-09T11:08:00;26.02;;;17.63;;
12707;SDS011;6418;50.824;4.718;2023-07-09T11:10:34;30.85;;;22.85;;
12707;SDS011;6418;50.824;4.718;2023-07-09T11:13:05;31.15;;;22.13;;
12707;SDS011;6418;50.824;4.718;2023-07-09T11:15:37;25.67;;;19.77;;
12707;SDS011;6418;50.824;4.718;2023-07-09T11:18:10;27.55;;;21.05;;
12707;SDS011;6418;50.824;4.718;2023-07-09T11:20:41;32.13;;;20.85;;
12707;SDS011;6418;50.824;4.718;2023-07-09T11:23:16;29.42;;;19.17;;
12707;SDS011;6418;50.824;4.718;2023-07-09T11:25:47;25.77;;;16.98;;
12707;SDS011;6418;50.824;4.718;2023-07-09T11:28:15;25.73;;;15.98;;
12707;SDS011;6418;50.824;4.718;2023-07-09T11:30:46;26.50;;;16.67;;
12707;SDS011;6418;50.824;4.718;2023-07-09T11:33:16;23.13;;;16.20;;
12707;SDS011;6418;50.824;4.718;2023-07-09T11:35:45;21.58;;;14.95;;
12707;SDS011;6418;50.824;4.718;2023-07-09T11:38:15;20.83;;;14.70;;
12707;SDS011;6418;50.824;4.718;2023-07-09T11:40:49;20.17;;;13.57;;
12707;SDS011;6418;50.824;4.718;2023-07-09T11:43:28;20.90;;;13.02;;
12707;SDS011;6418;50.824;4.718;2023-07-09T11:46:02;21.40;;;12.55;;
12707;SDS011;6418;50.824;4.718;2023-07-09T11:48:36;17.73;;;12.07;;
12707;SDS011;6418;50.824;4.718;2023-07-09T11:51:08;17.30;;;10.82;;
12707;SDS011;6418;50.824;4.718;2023-07-09T11:53:41;22.42;;;11.63;;
12707;SDS011;6418;50.824;4.718;2023-07-09T11:56:14;18.52;;;10.85;;
12707;SDS011;6418;50.824;4.718;2023-07-09T11:58:48;19.27;;;10.32;;
12707;SDS011;6418;50.824;4.718;2023-07-09T12:01:16;18.08;;;9.88;;
12707;SDS011;6418;50.824;4.718;2023-07-09T12:03:45;17.92;;;9.80;;
12707;SDS011;6418;50.824;4.718;2023-07-09T12:06:16;16.55;;;9.82;;
12707;SDS011;6418;50.824;4.718;2023-07-09T12:08:45;16.45;;;8.88;;
12707;SDS011;6418;50.824;4.718;2023-07-09T12:11:21;16.98;;;9.40;;
12707;SDS011;6418;50.824;4.718;2023-07-09T12:13:49;17.55;;;9.05;;
12707;SDS011;6418;50.824;4.718;2023-07-09T12:16:20;17.80;;;8.45;;
12707;SDS011;6418;50.824;4.718;2023-07-09T12:18:47;15.85;;;8.30;;
12707;SDS011;6418;50.824;4.718;2023-07-09T12:21:14;14.45;;;7.88;;
12707;SDS011;6418;50.824;4.718;2023-07-09T12:23:41;16.02;;;8.32;;
12707;SDS011;6418;50.824;4.718;2023-07-09T12:26:10;13.23;;;7.32;;
12707;SDS011;6418;50.824;4.718;2023-07-09T12:28:40;15.77;;;7.93;;
12707;SDS011;6418;50.824;4.718;2023-07-09T12:31:10;16.63;;;7.97;;
12707;SDS011;6418;50.824;4.718;2023-07-09T12:33:46;17.83;;;8.68;;
12707;SDS011;6418;50.824;4.718;2023-07-09T12:36:14;16.55;;;8.77;;
12707;SDS011;6418;50.824;4.718;2023-07-09T12:38:44;24.48;;;10.63;;
12707;SDS011;6418;50.824;4.718;2023-07-09T12:41:16;12.70;;;5.30;;
12707;SDS011;6418;50.824;4.718;2023-07-09T12:43:47;3.70;;;3.05;;
12707;SDS011;6418;50.824;4.718;2023-07-09T12:46:14;1.90;;;1.80;;
12707;SDS011;6418;50.824;4.718;2023-07-09T12:48:42;1.95;;;1.83;;
12707;SDS011;6418;50.824;4.718;2023-07-09T12:51:14;8.23;;;3.65;;
12707;SDS011;6418;50.824;4.718;2023-07-09T12:53:45;2.03;;;1.88;;
12707;SDS011;6418;50.824;4.718;2023-07-09T12:56:13;4.53;;;2.67;;
12707;SDS011;6418;50.824;4.718;2023-07-09T12:58:42;3.30;;;2.13;;
12707;SDS011;6418;50.824;4.718;2023-07-09T13:01:13;3.33;;;2.13;;
12707;SDS011;6418;50.824;4.718;2023-07-09T13:03:41;3.95;;;2.58;;
12707;SDS011;6418;50.824;4.718;2023-07-09T13:06:25;1.80;;;1.67;;
12707;SDS011;6418;50.824;4.718;2023-07-09T13:08:55;0.50;;;0.50;;
12707;SDS011;6418;50.824;4.718;2023-07-09T13:11:24;0.60;;;0.60;;
12707;SDS011;6418;50.824;4.718;2023-07-09T13:13:55;12.80;;;5.72;;
12707;SDS011;6418;50.824;4.718;2023-07-09T13:16:24;10.40;;;4.00;;
12707;SDS011;6418;50.824;4.718;2023-07-09T13:18:51;0.50;;;0.50;;
12707;SDS011;6418;50.824;4.718;2023-07-09T13:21:19;0.70;;;0.70;;
12707;SDS011;6418;50.824;4.718;2023-07-09T13:23:47;10.48;;;5.30;;
12707;SDS011;6418;50.824;4.718;2023-07-09T13:26:14;9.27;;;5.47;;
12707;SDS011;6418;50.824;4.718;2023-07-09T13:28:42;11.82;;;5.90;;
12707;SDS011;6418;50.824;4.718;2023-07-09T13:31:11;10.27;;;6.13;;
12707;SDS011;6418;50.824;4.718;2023-07-09T13:33:42;10.45;;;5.45;;
12707;SDS011;6418;50.824;4.718;2023-07-09T13:36:10;10.65;;;6.22;;
12707;SDS011;6418;50.824;4.718;2023-07-09T13:38:38;14.45;;;6.65;;
12707;SDS011;6418;50.824;4.718;2023-07-09T13:41:10;11.55;;;5.97;;
12707;SDS011;6418;50.824;4.718;2023-07-09T13:43:41;14.68;;;6.72;;
12707;SDS011;6418;50.824;4.718;2023-07-09T13:46:10;13.00;;;6.78;;
12707;SDS011;6418;50.824;4.718;2023-07-09T13:48:39;13.43;;;7.00;;
12707;SDS011;6418;50.824;4.718;2023-07-09T13:51:13;14.70;;;6.93;;
12707;SDS011;6418;50.824;4.718;2023-07-09T13:53:44;10.60;;;5.75;;
12707;SDS011;6418;50.824;4.718;2023-07-09T13:56:11;16.98;;;6.05;;
12707;SDS011;6418;50.824;4.718;2023-07-09T13:58:39;12.32;;;6.30;;
12707;SDS011;6418;50.824;4.718;2023-07-09T14:01:10;13.50;;;5.57;;
12707;SDS011;6418;50.824;4.718;2023-07-09T14:03:39;11.25;;;6.13;;
12707;SDS011;6418;50.824;4.718;2023-07-09T14:06:08;14.82;;;5.60;;
12707;SDS011;6418;50.824;4.718;2023-07-09T14:08:39;10.88;;;6.28;;
12707;SDS011;6418;50.824;4.718;2023-07-09T14:11:09;11.23;;;5.78;;
12707;SDS011;6418;50.824;4.718;2023-07-09T14:13:37;13.98;;;5.88;;
12707;SDS011;6418;50.824;4.718;2023-07-09T14:16:05;10.93;;;5.78;;
12707;SDS011;6418;50.824;4.718;2023-07-09T14:18:33;20.52;;;10.43;;
12707;SDS011;6418;50.824;4.718;2023-07-09T14:20:59;29.23;;;13.43;;
12707;SDS011;6418;50.824;4.718;2023-07-09T14:23:32;25.35;;;13.23;;
12707;SDS011;6418;50.824;4.718;2023-07-09T14:26:01;26.33;;;12.85;;
12707;SDS011;6418;50.824;4.718;2023-07-09T14:28:28;23.55;;;12.88;;
12707;SDS011;6418;50.824;4.718;2023-07-09T14:30:56;23.67;;;13.88;;
12707;SDS011;6418;50.824;4.718;2023-07-09T14:33:23;23.83;;;12.80;;
12707;SDS011;6418;50.824;4.718;2023-07-09T14:35:50;23.52;;;12.85;;
12707;SDS011;6418;50.824;4.718;2023-07-09T14:38:18;24.95;;;12.90;;
12707;SDS011;6418;50.824;4.718;2023-07-09T14:40:47;20.73;;;12.20;;
12707;SDS011;6418;50.824;4.718;2023-07-09T14:43:17;17.58;;;10.95;;
12707;SDS011;6418;50.824;4.718;2023-07-09T14:45:44;18.00;;;10.52;;
12707;SDS011;6418;50.824;4.718;2023-07-09T14:48:11;19.98;;;11.73;;
12707;SDS011;6418;50.824;4.718;2023-07-09T14:50:40;18.00;;;10.82;;
12707;SDS011;6418;50.824;4.718;2023-07-09T14:53:14;17.80;;;10.30;;
12707;SDS011;6418;50.824;4.718;2023-07-09T14:55:51;16.05;;;10.07;;
12707;SDS011;6418;50.824;4.718;2023-07-09T14:58:20;17.20;;;10.52;;